createdAt,value
2017-10-07T00:01:09.602Z,4.53
2017-10-07T00:03:37.230Z,3.60
2017-10-07T00:06:04.820Z,4.27
2017-10-07T00:08:33.273Z,7.50
2017-10-07T00:11:00.829Z,8.87
2017-10-07T00:13:29.362Z,3.93
2017-10-07T00:15:57.871Z,5.10
2017-10-07T00:18:26.346Z,7.50
2017-10-07T00:20:54.598Z,7.57
2017-10-07T00:23:22.198Z,4.40
2017-10-07T00:25:49.776Z,5.73
2017-10-07T00:28:17.350Z,4.40
2017-10-07T00:30:46.947Z,5.83
2017-10-07T00:33:15.524Z,4.77
2017-10-07T00:35:44.302Z,6.13
2017-10-07T00:38:13.045Z,9.20
2017-10-07T00:40:40.663Z,8.03
2017-10-07T00:43:08.997Z,8.93
2017-10-07T00:45:36.514Z,8.77
2017-10-07T00:48:04.147Z,6.00
2017-10-07T00:50:31.740Z,10.60
2017-10-07T00:52:59.303Z,4.43
2017-10-07T00:55:26.944Z,7.67
2017-10-07T00:57:54.516Z,8.70
2017-10-07T01:00:22.135Z,4.83
2017-10-07T01:02:50.433Z,7.50
2017-10-07T01:05:18.033Z,6.03
2017-10-07T01:07:45.685Z,7.53
2017-10-07T01:10:14.141Z,5.77
2017-10-07T01:12:42.659Z,7.70
2017-10-07T01:15:10.265Z,7.70
2017-10-07T01:17:37.989Z,4.20
2017-10-07T01:20:05.571Z,8.67
2017-10-07T01:22:33.107Z,11.27
2017-10-07T01:25:00.845Z,7.97
2017-10-07T01:27:28.413Z,6.47
2017-10-07T01:29:56.820Z,11.40
2017-10-07T01:32:24.376Z,10.10
2017-10-07T01:34:52.796Z,5.77
2017-10-07T01:37:20.398Z,13.60
2017-10-07T01:39:48.123Z,6.10
2017-10-07T01:42:15.713Z,7.20
2017-10-07T01:44:43.253Z,8.67
2017-10-07T01:47:10.901Z,7.80
2017-10-07T01:49:38.496Z,8.40
2017-10-07T01:52:06.074Z,11.93
2017-10-07T01:54:33.699Z,6.40
2017-10-07T01:57:01.269Z,5.80
2017-10-07T01:59:28.966Z,4.97
2017-10-07T02:01:56.626Z,9.27
2017-10-07T02:04:24.228Z,5.07
2017-10-07T02:06:52.330Z,7.20
2017-10-07T02:09:19.933Z,9.20
2017-10-07T02:11:48.051Z,7.13
2017-10-07T02:14:16.214Z,7.30
2017-10-07T02:16:43.810Z,9.10
2017-10-07T02:19:11.423Z,12.30
2017-10-07T02:21:38.948Z,6.30
2017-10-07T02:24:06.623Z,7.67
2017-10-07T02:26:34.134Z,5.97
2017-10-07T02:29:02.029Z,8.27
2017-10-07T02:31:29.617Z,8.07
2017-10-07T02:33:57.087Z,7.97
2017-10-07T02:36:24.676Z,7.47
2017-10-07T02:38:52.290Z,9.40
2017-10-07T02:41:20.734Z,5.07
2017-10-07T02:43:48.415Z,5.30
2017-10-07T02:46:16.058Z,4.67
2017-10-07T02:48:45.059Z,6.47
2017-10-07T02:51:13.488Z,8.57
2017-10-07T02:53:41.085Z,8.83
2017-10-07T02:56:08.678Z,6.37
2017-10-07T02:58:36.238Z,4.63
2017-10-07T03:01:03.916Z,4.77
2017-10-07T03:03:31.508Z,10.30
2017-10-07T03:05:59.809Z,7.47
2017-10-07T03:08:27.469Z,10.60
2017-10-07T03:10:54.986Z,6.77
2017-10-07T03:13:22.547Z,7.00
2017-10-07T03:15:50.058Z,9.00
2017-10-07T03:18:17.658Z,13.30
2017-10-07T03:20:45.548Z,5.37
2017-10-07T03:23:14.039Z,7.00
2017-10-07T03:25:41.583Z,8.23
2017-10-07T03:28:09.214Z,6.90
2017-10-07T03:30:37.585Z,7.70
2017-10-07T03:33:05.193Z,8.97
2017-10-07T03:35:37.299Z,8.50
2017-10-07T03:38:04.914Z,6.77
2017-10-07T03:40:33.836Z,4.87
2017-10-07T03:43:02.748Z,6.20
2017-10-07T03:45:30.378Z,7.00
2017-10-07T03:47:59.009Z,10.70
2017-10-07T03:50:28.395Z,7.13
2017-10-07T03:52:55.980Z,5.77
2017-10-07T03:55:25.500Z,7.23
2017-10-07T03:57:53.076Z,6.50
2017-10-07T04:00:21.357Z,8.43
2017-10-07T04:02:49.022Z,10.03
2017-10-07T04:05:16.577Z,6.53
2017-10-07T04:07:44.149Z,5.10
2017-10-07T04:10:12.787Z,8.60
2017-10-07T04:12:40.453Z,8.90
2017-10-07T04:15:08.854Z,7.03
2017-10-07T04:17:36.498Z,13.83
2017-10-07T04:20:04.156Z,13.40
2017-10-07T04:22:31.731Z,10.00
2017-10-07T04:24:59.300Z,14.90
2017-10-07T04:27:27.695Z,6.40
2017-10-07T04:29:55.312Z,9.00
2017-10-07T04:32:23.118Z,8.27
2017-10-07T04:34:51.822Z,6.93
2017-10-07T04:37:19.448Z,5.93
2017-10-07T04:39:46.968Z,10.07
2017-10-07T04:42:15.157Z,8.23
2017-10-07T04:44:42.721Z,6.80
2017-10-07T04:47:14.153Z,9.23
2017-10-07T04:49:43.617Z,10.40
2017-10-07T04:52:11.717Z,7.53
2017-10-07T04:54:39.346Z,14.50
2017-10-07T04:57:06.921Z,8.27
2017-10-07T04:59:35.445Z,8.87
2017-10-07T05:02:02.998Z,10.77
2017-10-07T05:04:31.497Z,10.17
2017-10-07T05:06:59.112Z,12.47
2017-10-07T05:09:26.666Z,14.47
2017-10-07T05:11:54.250Z,11.23
2017-10-07T05:14:22.702Z,10.10
2017-10-07T05:16:50.928Z,8.87
2017-10-07T05:19:18.415Z,12.07
2017-10-07T05:21:45.870Z,7.20
2017-10-07T05:24:13.371Z,10.50
2017-10-07T05:26:40.847Z,10.97
2017-10-07T05:29:08.404Z,12.60
2017-10-07T05:31:35.899Z,10.67
2017-10-07T05:34:03.396Z,15.17
2017-10-07T05:36:30.879Z,8.90
2017-10-07T05:38:58.871Z,12.23
2017-10-07T05:41:26.407Z,11.00
2017-10-07T05:43:53.891Z,13.10
2017-10-07T05:46:21.382Z,8.43
2017-10-07T05:48:48.870Z,9.13
2017-10-07T05:51:16.438Z,10.57
2017-10-07T05:53:43.988Z,11.33
2017-10-07T05:56:11.507Z,17.70
2017-10-07T05:58:39.069Z,12.43
2017-10-07T06:01:06.574Z,8.80
2017-10-07T06:03:34.076Z,9.33
2017-10-07T06:06:01.856Z,11.37
2017-10-07T06:08:29.377Z,10.53
2017-10-07T06:10:57.035Z,10.13
2017-10-07T06:13:24.555Z,9.93
2017-10-07T06:15:52.076Z,10.23
2017-10-07T06:18:19.592Z,10.83
2017-10-07T06:20:47.423Z,10.23
2017-10-07T06:23:15.324Z,11.13
2017-10-07T06:25:42.916Z,8.53
2017-10-07T06:28:10.507Z,10.73
2017-10-07T06:30:38.075Z,8.67
2017-10-07T06:33:05.605Z,9.70
2017-10-07T06:35:33.210Z,10.33
2017-10-07T06:38:01.798Z,13.97
2017-10-07T06:40:29.320Z,10.17
2017-10-07T06:42:56.896Z,11.07
2017-10-07T06:45:24.453Z,13.73
2017-10-07T06:47:51.996Z,10.33
2017-10-07T06:50:19.733Z,8.40
2017-10-07T06:52:47.308Z,13.70
2017-10-07T06:55:14.827Z,8.20
2017-10-07T06:57:42.720Z,7.37
2017-10-07T07:00:10.197Z,8.23
2017-10-07T07:02:37.705Z,9.10
2017-10-07T07:05:05.229Z,8.80
2017-10-07T07:07:32.703Z,7.13
2017-10-07T07:10:00.281Z,7.40
2017-10-07T07:12:28.671Z,7.63
2017-10-07T07:14:56.129Z,7.37
2017-10-07T07:17:24.645Z,14.33
2017-10-07T07:19:52.369Z,6.23
2017-10-07T07:22:19.908Z,5.93
2017-10-07T07:24:47.501Z,6.40
2017-10-07T07:27:14.997Z,8.40
2017-10-07T07:29:43.056Z,7.30
2017-10-07T07:32:10.980Z,6.03
2017-10-07T07:34:38.522Z,8.50
2017-10-07T07:37:06.068Z,10.10
2017-10-07T07:39:33.605Z,7.40
2017-10-07T07:42:01.127Z,6.53
2017-10-07T07:44:32.971Z,6.87
2017-10-07T07:47:08.279Z,5.90
2017-10-07T07:49:48.139Z,5.13
2017-10-07T07:52:18.416Z,8.70
2017-10-07T07:54:53.192Z,6.80
2017-10-07T07:57:24.884Z,6.23
2017-10-07T07:59:52.370Z,6.27
2017-10-07T08:02:19.954Z,5.07
2017-10-07T08:04:47.675Z,5.00
2017-10-07T08:07:15.193Z,4.60
2017-10-07T08:09:42.718Z,6.33
2017-10-07T08:12:10.269Z,7.77
2017-10-07T08:14:38.653Z,6.37
2017-10-07T08:17:06.177Z,5.93
2017-10-07T08:19:34.448Z,7.37
2017-10-07T08:22:02.763Z,6.47
2017-10-07T08:24:30.540Z,4.40
2017-10-07T08:26:58.817Z,5.03
2017-10-07T08:29:26.327Z,3.77
2017-10-07T08:31:53.883Z,3.07
2017-10-07T08:34:22.199Z,4.00
2017-10-07T08:36:49.663Z,4.87
2017-10-07T08:39:17.184Z,3.80
2017-10-07T08:41:45.711Z,4.90
2017-10-07T08:44:13.213Z,4.77
2017-10-07T08:46:40.696Z,2.70
2017-10-07T08:49:08.154Z,3.07
2017-10-07T08:51:35.705Z,4.30
2017-10-07T08:54:03.177Z,9.57
2017-10-07T08:56:30.683Z,3.30
2017-10-07T08:58:58.160Z,3.47
2017-10-07T09:01:25.650Z,3.90
2017-10-07T09:03:53.147Z,4.13
2017-10-07T09:06:20.687Z,4.90
2017-10-07T09:08:48.240Z,2.30
2017-10-07T09:11:15.749Z,2.70
2017-10-07T09:13:43.267Z,3.00
2017-10-07T09:16:10.968Z,4.83
2017-10-07T09:18:40.235Z,2.13
2017-10-07T10:04:03.925Z,2.87
2017-10-07T10:06:34.351Z,5.70
2017-10-07T10:09:19.905Z,2.60
2017-10-07T10:11:59.527Z,2.93
2017-10-07T10:20:12.913Z,4.70
2017-10-07T10:22:44.171Z,2.20
2017-10-07T10:33:49.479Z,2.17
2017-10-07T10:36:24.150Z,2.60
2017-10-07T14:48:20.205Z,1.83
2017-10-07T14:51:02.294Z,2.17
2017-10-07T14:53:31.824Z,2.40
2017-10-07T14:56:27.836Z,4.57
2017-10-07T14:58:55.508Z,5.27
2017-10-07T15:01:23.309Z,4.00
2017-10-07T15:03:52.186Z,3.30
2017-10-07T15:06:19.773Z,6.47
2017-10-07T15:14:28.694Z,3.10
2017-10-07T15:16:57.694Z,2.30
2017-10-07T15:19:25.505Z,2.50
2017-10-07T15:22:11.528Z,2.03
2017-10-07T16:39:14.204Z,5.50
2017-10-07T16:57:55.017Z,7.17
2017-10-07T17:00:30.856Z,3.50
2017-10-07T17:19:36.494Z,3.87
2017-10-07T17:25:38.107Z,4.13
2017-10-07T17:42:09.140Z,6.83
2017-10-07T18:48:37.445Z,3.80
2017-10-07T18:51:09.603Z,3.60
2017-10-07T18:53:44.536Z,5.47
2017-10-07T18:56:16.539Z,5.33
2017-10-07T18:58:49.738Z,3.17
2017-10-07T19:01:25.055Z,4.43
2017-10-07T19:03:58.812Z,3.43
2017-10-07T19:06:30.766Z,3.57
2017-10-07T19:09:11.885Z,3.53
2017-10-07T20:28:11.191Z,7.90
2017-10-07T20:30:40.648Z,8.70
2017-10-07T20:33:08.368Z,7.73
2017-10-07T20:35:37.181Z,9.67
2017-10-07T20:38:04.770Z,8.37
2017-10-07T20:40:36.468Z,7.60
2017-10-07T20:43:04.420Z,5.10
2017-10-07T20:45:31.998Z,7.13
2017-10-07T20:48:00.127Z,8.67
2017-10-07T20:50:29.287Z,7.80
2017-10-07T20:52:57.186Z,7.80
2017-10-07T20:55:25.057Z,7.87
2017-10-07T20:57:52.777Z,6.13
2017-10-07T21:00:20.395Z,3.20
2017-10-07T21:02:48.182Z,6.47
2017-10-07T21:05:16.078Z,3.23
2017-10-07T21:07:43.847Z,5.10
2017-10-07T21:10:11.923Z,4.17
2017-10-07T21:12:39.570Z,5.80
2017-10-07T21:15:07.198Z,6.43
2017-10-07T21:17:35.264Z,4.33
2017-10-07T21:20:03.180Z,4.97
2017-10-07T21:22:30.954Z,7.23
2017-10-07T21:24:58.526Z,9.40
2017-10-07T21:27:26.144Z,6.40
2017-10-07T21:29:58.883Z,6.80
2017-10-07T21:32:26.700Z,7.27
2017-10-07T21:34:54.493Z,6.07
2017-10-07T21:37:23.492Z,7.30
2017-10-07T21:39:51.149Z,7.90
2017-10-07T21:42:19.707Z,7.70
2017-10-07T21:44:47.566Z,6.37
2017-10-07T21:47:15.686Z,9.27
2017-10-07T21:49:45.778Z,6.67
2017-10-07T21:52:18.821Z,5.20
2017-10-07T21:54:47.653Z,4.57
2017-10-07T21:57:20.650Z,5.13
2017-10-07T21:59:48.588Z,6.00
2017-10-07T22:05:03.042Z,4.10
2017-10-07T22:07:36.924Z,3.83
2017-10-07T22:10:09.639Z,5.00
2017-10-07T22:15:43.403Z,8.57
2017-10-07T22:18:16.442Z,4.03
2017-10-07T22:21:08.370Z,4.00
2017-10-07T22:23:38.363Z,4.70
2017-10-07T22:26:08.095Z,4.90
2017-10-07T22:28:39.235Z,4.57
2017-10-07T22:31:08.386Z,3.83
2017-10-07T22:33:36.989Z,4.97
2017-10-07T22:36:07.007Z,2.93
2017-10-07T22:38:34.929Z,6.30
2017-10-07T22:41:02.640Z,3.43
2017-10-07T22:43:30.940Z,3.50
2017-10-07T22:45:58.887Z,5.60
2017-10-07T22:48:30.270Z,3.97
2017-10-07T22:51:11.816Z,4.93
2017-10-07T22:56:30.721Z,5.50
2017-10-07T23:04:33.897Z,4.80
2017-10-07T23:07:01.538Z,4.33
2017-10-07T23:09:32.951Z,4.07
2017-10-07T23:21:19.802Z,4.50
2017-10-07T23:23:48.181Z,2.80
2017-10-07T23:26:15.931Z,2.67
2017-10-07T23:28:45.308Z,4.93
2017-10-07T23:31:21.323Z,2.77
2017-10-07T23:36:29.915Z,4.63
2017-10-07T23:39:00.465Z,2.53
2017-10-07T23:41:30.973Z,7.10
2017-10-07T23:43:58.687Z,2.90
2017-10-07T23:46:27.504Z,3.60
2017-10-07T23:48:55.803Z,8.60
2017-10-07T23:51:23.560Z,2.40
2017-10-07T23:53:52.026Z,3.67
2017-10-07T23:56:20.215Z,4.87
2017-10-07T23:58:48.144Z,3.73
